Página principal
METAR-TAF:

METAR-TAF

Aeroportos :

Foz do Iguaçu, Paraná, Brasil

Aeroporto Internacional de Foz do Iguaçu

latitude: 25-31S, longitude: 054-35W, altura: 180 m

Observação actual do tempo

O boletim foi feito há 31 minutos, às 23:00 UTC
Vento 3 kt de nor-nordeste
Temperatura 28°C
Humidade 66%
Pressão 1011 hPa
Visibilidade 10 km ou mais
sem nuvens abaixo de 1500 metros e sem cumulonimbus

METAR: SBFI 122300Z 03003KT CAVOK 28/21 Q1011

Hora: 21:31 (23:31 UTC)

Previsão

O boletim foi feito há 9 horas e 31 minutos, às 14:00 UTC
Previsão válida de 12 às 18 UTC a 13 às 18 UTC
Vento 9 kt de nordeste
Visibilidade 10 km ou mais
sem nuvens abaixo de 1500 metros e sem cumulonimbus

TAF: SBFI 121400Z 1218/1318 05009KT CAVOK TX31/1218Z TN20/1309Z RMK PE B

Observações e previsões do tempo de mais de 4000 aeroportos (mensagens METAR e TAF).

As estações disponíveis são os pontos amarelos e vermelhos sobre o mapa.

Mova o rato sobre o mapa para ver o nome da estação.

Depois clique no ponto para visualizar as observações e previsões meteorológicas.

Para alterar o mapa : clique nos botões verdes com uma cruz preta para aumentar o zoom; no botão verde com uma pitada de zoom; ou nas setas verdes para mapas adjacentes.


METAR-TAF: